الصفحة الرئيسية
METAR-TAF:

METAR-TAF

مطار :

East Jakarta, إندونيسيا

دائرة عرض: 06-15-59S, خط طول: 106-53-28E, ارتفاع: 25 متر

مراقبة الطقس الحالي

تاريخ ووقت الإصدار 36 دقيقة قبل الساعة 10:30UTC
ريح 7 عقدة من الشمال الشرقي
درجة الحرارة 31°درجة مئوية
الرطوبة 55%
ضغط 1007 hPa
الرؤية: 6000 متر
غيوم قليلة على ارتفاع 2000 قدم

METAR: WIHH 291030Z 05007KT 6000 FEW020 31/21 Q1007 NOSIG

زمن: 18:06 (11:06 UTC)

توقعات

تاريخ ووقت الإصدار 6ساعات و 6 دقيقة قبل الساعة 05:00UTC
التوقعات صالحة من29 الساعة 06 UTC إلى 30 الساعة 06 UTC
ريح 10 عقدة من الشرق/الشمال الشرقي
الرؤية: 6000 متر
غيوم متفرقة على ارتفاع 2000 قدم
مؤقت
من 29 الساعة 10 UTC إلى 29 الساعة 13 UTC
ريح 8 عقدة من الغرب/الشمال الغربي
الرؤية: 3000 متر
غيوم قليلة على ارتفاع 1700 قدم, مزنة ركامية.
مطر خفيف
أصبح
من 29 الساعة 14 UTC إلى 29 الساعة 16 UTC
ريح 5 عقدة من الجنوب الغربي
الرؤية: 5000 متر
غيوم قليلة على ارتفاع 2200 قدم
العجاج

TAF: WIHH 290500Z 2906/3006 06010KT 6000 SCT020 TEMPO 2910/2913 30008KT 3000 -RA FEW017CB BECMG 2914/2916 23005KT 5000 HZ FEW022

أرصاد الطقس والتوقعات من أكثر من 4000 مطار (تقارير الطقس للمطار METAR والتنبؤ بالطقس بالمطارTAF).

المحطات المتاحة هي النقط الصفراء والحمراء على الخريطة.

حرك المؤشر فوق النقطة لمعرفة اسم المحطة.

ثم انقر لمعرفة أرصاد وتوقعات الطقس.

لتغيير الخارطة: اضغط على الأزرار الخضراء مع رمز الصليب الأسود للتكبير. على الزر الأخضر مع شرطة للتصغير، أو على الأسهم الخضراء للخرائط المجاورة.


METAR-TAF: